createdAt,value
2022-08-07T00:02:37.753Z,984.82
2022-08-07T00:09:20.985Z,984.77
2022-08-07T00:16:02.549Z,984.72
2022-08-07T00:22:51.524Z,984.63
2022-08-07T00:29:38.240Z,984.59
2022-08-07T00:36:12.293Z,984.56
2022-08-07T00:42:53.386Z,984.48
2022-08-07T00:50:16.858Z,984.45
2022-08-07T00:56:13.762Z,984.36
2022-08-07T01:02:40.384Z,984.36
2022-08-07T01:09:08.584Z,984.33
2022-08-07T01:16:00.718Z,984.3
2022-08-07T01:22:31.296Z,984.28
2022-08-07T01:28:58.604Z,984.28
2022-08-07T01:35:37.055Z,984.2
2022-08-07T01:42:39.080Z,984.21
2022-08-07T01:48:49.474Z,984.21
2022-08-07T01:55:25.791Z,984.23
2022-08-07T02:03:11.523Z,984.18
2022-08-07T02:09:58.268Z,984.21
2022-08-07T02:16:43.100Z,984.18
2022-08-07T02:23:24.934Z,984.13
2022-08-07T02:29:57.107Z,984
2022-08-07T02:36:37.246Z,984.07
2022-08-07T02:43:18.295Z,984.09
2022-08-07T02:50:01.102Z,984.05
2022-08-07T02:56:55.258Z,983.94
2022-08-07T03:03:51.084Z,983.88
2022-08-07T03:10:33.251Z,983.8
2022-08-07T03:17:09.530Z,983.79
2022-08-07T03:24:18.541Z,983.79
2022-08-07T03:30:31.288Z,983.75
2022-08-07T03:37:13.141Z,983.71
2022-08-07T03:44:01.584Z,983.68
2022-08-07T03:50:52.274Z,983.77
2022-08-07T03:58:08.669Z,983.8
2022-08-07T04:04:20.584Z,983.8
2022-08-07T04:12:21.058Z,983.83
2022-08-07T04:18:31.546Z,983.83
2022-08-07T04:24:33.940Z,983.84
2022-08-07T04:31:00.931Z,983.87
2022-08-07T04:37:40.572Z,983.91
2022-08-07T04:44:19.718Z,983.93
2022-08-07T04:51:39.746Z,984.05
2022-08-07T04:59:16.792Z,984.11
2022-08-07T05:06:19.297Z,984.14
2022-08-07T05:14:45.370Z,984.18
2022-08-07T05:20:34.700Z,984.19
2022-08-07T05:28:02.342Z,984.15
2022-08-07T05:34:16.517Z,984.2
2022-08-07T05:40:58.920Z,984.24
2022-08-07T05:48:00.206Z,984.28
2022-08-07T05:54:44.731Z,984.29
2022-08-07T06:01:35.003Z,984.3
2022-08-07T06:08:30.592Z,984.34
2022-08-07T06:15:07.192Z,984.29
2022-08-07T06:22:12.621Z,984.34
2022-08-07T06:28:28.759Z,984.36
2022-08-07T06:35:17.905Z,984.38
2022-08-07T06:42:03.514Z,984.37
2022-08-07T06:48:45.063Z,984.32
2022-08-07T06:55:48.169Z,984.3
2022-08-07T07:02:26.995Z,984.27
2022-08-07T07:09:06.091Z,984.26
2022-08-07T07:15:59.531Z,984.25
2022-08-07T07:24:06.985Z,984.25
2022-08-07T07:30:08.783Z,984.25
2022-08-07T07:37:14.842Z,984.23
2022-08-07T07:44:14.063Z,984.2
2022-08-07T07:50:45.781Z,984.2
2022-08-07T07:57:44.241Z,984.15
2022-08-07T08:04:28.411Z,984.16
2022-08-07T08:11:00.438Z,984.15
2022-08-07T08:17:56.838Z,984.09
2022-08-07T08:24:47.028Z,984.08
2022-08-07T08:31:58.502Z,984.04
2022-08-07T08:38:46.567Z,983.93
2022-08-07T08:45:58.824Z,983.91
2022-08-07T08:53:11.784Z,983.84
2022-08-07T09:00:16.738Z,983.82
2022-08-07T09:07:46.091Z,983.75
2022-08-07T09:14:59.706Z,983.69
2022-08-07T09:22:36.916Z,983.72
2022-08-07T09:30:03.020Z,983.68
2022-08-07T09:36:53.854Z,983.61
2022-08-07T09:44:19.132Z,983.6
2022-08-07T09:52:11.173Z,983.53
2022-08-07T09:58:32.972Z,983.43
2022-08-07T10:05:59.312Z,983.39
2022-08-07T10:12:58.890Z,983.26
2022-08-07T10:19:56.208Z,983.19
2022-08-07T10:26:57.782Z,983.14
2022-08-07T10:34:14.433Z,982.96
2022-08-07T10:41:47.772Z,982.95
2022-08-07T10:48:45.874Z,982.87
2022-08-07T10:55:57.686Z,982.89
2022-08-07T11:03:13.424Z,982.84
2022-08-07T11:10:27.907Z,982.7
2022-08-07T11:17:43.012Z,982.68
2022-08-07T11:24:52.584Z,982.59
2022-08-07T11:31:54.558Z,982.6
2022-08-07T11:39:08.171Z,982.56
2022-08-07T11:46:28.436Z,982.45
2022-08-07T11:54:00.489Z,982.44
2022-08-07T12:01:07.235Z,982.53
2022-08-07T12:08:26.155Z,982.46
2022-08-07T12:15:46.779Z,982.36
2022-08-07T12:23:09.436Z,982.31
2022-08-07T12:30:27.471Z,982.27
2022-08-07T12:37:23.698Z,982.25
2022-08-07T12:44:18.590Z,982.21
2022-08-07T12:51:51.181Z,982.15
2022-08-07T12:58:59.959Z,982.14
2022-08-07T13:06:21.776Z,982.08
2022-08-07T13:13:47.618Z,982.1
2022-08-07T13:20:45.515Z,982.03
2022-08-07T13:28:18.484Z,981.98
2022-08-07T13:36:00.136Z,981.96
2022-08-07T13:43:03.481Z,981.92
2022-08-07T13:50:32.480Z,981.8
2022-08-07T13:57:24.711Z,981.78
2022-08-07T14:04:09.661Z,981.76
2022-08-07T14:11:14.900Z,981.76
2022-08-07T14:18:30.104Z,981.65
2022-08-07T14:25:39.189Z,981.57
2022-08-07T14:32:27.431Z,981.42
2022-08-07T14:39:01.005Z,981.44
2022-08-07T14:45:49.993Z,981.39
2022-08-07T14:52:39.475Z,981.39
2022-08-07T15:00:03.809Z,981.35
2022-08-07T15:06:31.879Z,981.4
2022-08-07T15:13:22.674Z,981.24
2022-08-07T15:20:54.794Z,981.27
2022-08-07T15:27:37.473Z,981.17
2022-08-07T15:34:20.434Z,981.1
2022-08-07T15:42:42.987Z,981.13
2022-08-07T15:48:32.148Z,981.08
2022-08-07T15:55:23.277Z,981.05
2022-08-07T16:02:16.410Z,980.98
2022-08-07T16:09:23.083Z,980.98
2022-08-07T16:16:48.052Z,980.94
2022-08-07T16:24:34.124Z,980.88
2022-08-07T16:31:50.490Z,980.88
2022-08-07T16:39:00.222Z,980.85
2022-08-07T16:46:21.575Z,980.92
2022-08-07T16:53:55.775Z,980.91
2022-08-07T17:00:34.725Z,980.9
2022-08-07T17:07:51.885Z,980.89
2022-08-07T17:15:15.985Z,980.86
2022-08-07T17:22:16.015Z,980.85
2022-08-07T17:30:13.357Z,980.94
2022-08-07T17:37:14.433Z,980.97
2022-08-07T17:44:44.111Z,980.99
2022-08-07T17:52:01.755Z,981.05
2022-08-07T17:59:02.779Z,981.03
2022-08-07T18:06:37.383Z,981.09
2022-08-07T18:13:42.292Z,981.1
2022-08-07T18:21:05.308Z,981.17
2022-08-07T18:27:51.109Z,981.23
2022-08-07T18:35:01.974Z,981.27
2022-08-07T18:41:54.995Z,981.37
2022-08-07T18:50:06.305Z,981.46
2022-08-07T18:56:14.787Z,981.51
2022-08-07T19:03:35.680Z,981.53
2022-08-07T19:10:49.712Z,981.66
2022-08-07T19:18:03.516Z,981.72
2022-08-07T19:24:56.338Z,981.89
2022-08-07T19:32:14.940Z,982.05
2022-08-07T19:38:57.682Z,982.14
2022-08-07T19:46:01.437Z,982.24
2022-08-07T19:52:42.116Z,982.31
2022-08-07T19:59:24.603Z,982.31
2022-08-07T20:06:31.315Z,982.36
2022-08-07T20:13:26.814Z,982.46
2022-08-07T20:20:29.930Z,982.52
2022-08-07T20:27:12.056Z,982.52
2022-08-07T20:34:00.250Z,982.5
2022-08-07T20:40:41.737Z,982.57
2022-08-07T20:47:55.835Z,982.57
2022-08-07T20:54:33.087Z,982.55
2022-08-07T21:01:46.083Z,982.55
2022-08-07T21:08:41.268Z,982.49
2022-08-07T21:15:48.280Z,982.44
2022-08-07T21:22:29.455Z,982.42
2022-08-07T21:29:37.389Z,982.38
2022-08-07T21:36:52.045Z,982.41
2022-08-07T21:43:57.926Z,982.4
2022-08-07T21:51:24.735Z,982.43
2022-08-07T21:58:33.670Z,982.41
2022-08-07T22:05:49.288Z,982.38
2022-08-07T22:12:35.966Z,982.38
2022-08-07T22:19:43.945Z,982.39
2022-08-07T22:26:49.395Z,982.45
2022-08-07T22:34:05.825Z,982.48
2022-08-07T22:41:10.062Z,982.56
2022-08-07T22:48:03.322Z,982.53
2022-08-07T22:55:15.016Z,982.6
2022-08-07T23:02:28.853Z,982.59
2022-08-07T23:10:01.498Z,982.62
2022-08-07T23:17:01.256Z,982.63
2022-08-07T23:24:17.916Z,982.66
2022-08-07T23:31:43.145Z,982.62
2022-08-07T23:38:43.724Z,982.67
2022-08-07T23:46:11.004Z,982.62
2022-08-07T23:53:21.187Z,982.65
